Time;durP1;ratioP1;P1;durP2;ratioP2;P2;SDS_P1;SDS_P2;PMS_P1;PMS_P2;Temp;Humidity;BMP_temperature;BMP_pressure;BME280_temperature;BME280_humidity;BME280_pressure;Samples;Min_cycle;Max_cycle;Signal;HPM_P1;HPM_P2
2024/01/13 00:01:09;;;;;;;40.17;19.17;;;;;;;;;;5029558;28;20488;-87
2024/01/13 00:03:36;;;;;;;26.57;14.90;;;;;;;;;;5031558;28;20471;-84
2024/01/13 00:06:04;;;;;;;34.20;17.47;;;;;;;;;;5043540;28;20462;-86
2024/01/13 00:08:32;;;;;;;35.03;16.40;;;;;;;;;;5029449;28;20472;-85
2024/01/13 00:11:02;;;;;;;36.13;17.97;;;;;;;;;;5023839;28;20537;-85
2024/01/13 00:13:30;;;;;;;35.67;16.67;;;;;;;;;;5026885;28;20454;-86
2024/01/13 00:15:57;;;;;;;39.40;16.80;;;;;;;;;;5025599;28;21083;-84
2024/01/13 00:18:24;;;;;;;38.30;17.03;;;;;;;;;;5018688;28;20482;-84
2024/01/13 00:20:57;;;;;;;34.17;17.40;;;;;;;;;;5046261;28;20487;-84
2024/01/13 00:23:24;;;;;;;28.20;16.43;;;;;;;;;;5038663;28;20555;-85
2024/01/13 00:25:52;;;;;;;35.43;17.43;;;;;;;;;;5033604;28;20465;-84
2024/01/13 00:28:19;;;;;;;31.30;17.37;;;;;;;;;;5039534;28;20502;-87
2024/01/13 00:30:50;;;;;;;31.63;17.70;;;;;;;;;;5031010;28;20433;-85
2024/01/13 00:33:17;;;;;;;31.40;17.03;;;;;;;;;;5043607;28;20488;-85
2024/01/13 00:35:44;;;;;;;25.43;15.17;;;;;;;;;;5035732;28;20493;-86
2024/01/13 00:38:12;;;;;;;30.17;18.37;;;;;;;;;;5020105;28;20585;-85
2024/01/13 00:40:45;;;;;;;33.90;17.50;;;;;;;;;;5020983;28;20481;-86
2024/01/13 00:43:13;;;;;;;31.30;16.03;;;;;;;;;;5036839;28;20458;-86
2024/01/13 00:45:40;;;;;;;35.03;16.93;;;;;;;;;;5029716;28;20534;-83
2024/01/13 00:48:09;;;;;;;27.50;16.20;;;;;;;;;;5039080;28;20473;-87
2024/01/13 00:50:42;;;;;;;28.47;16.40;;;;;;;;;;5019022;28;21251;-85
2024/01/13 00:53:10;;;;;;;31.70;18.17;;;;;;;;;;5021378;28;20468;-84
2024/01/13 00:55:37;;;;;;;25.57;15.43;;;;;;;;;;5036743;28;20457;-85
2024/01/13 00:58:04;;;;;;;32.67;18.33;;;;;;;;;;5021173;28;20473;-86
2024/01/13 01:00:31;;;;;;;26.00;16.63;;;;;;;;;;5038459;28;20484;-84
2024/01/13 01:03:00;;;;;;;28.33;16.97;;;;;;;;;;5052210;28;20529;-83
2024/01/13 01:05:27;;;;;;;30.17;18.70;;;;;;;;;;5033674;28;20805;-82
2024/01/13 01:07:54;;;;;;;32.53;16.03;;;;;;;;;;5041865;28;20492;-85
2024/01/13 01:10:24;;;;;;;32.23;17.97;;;;;;;;;;5045188;28;20477;-86
2024/01/13 01:12:51;;;;;;;27.60;16.97;;;;;;;;;;5045804;28;20461;-86
2024/01/13 01:15:18;;;;;;;28.13;16.33;;;;;;;;;;5042595;28;20454;-85
2024/01/13 01:17:46;;;;;;;32.13;17.90;;;;;;;;;;5029902;28;20492;-83
2024/01/13 01:20:13;;;;;;;27.90;15.57;;;;;;;;;;5020347;28;20572;-84
2024/01/13 01:22:40;;;;;;;36.63;17.70;;;;;;;;;;5022252;28;20443;-83
2024/01/13 01:25:08;;;;;;;32.00;17.13;;;;;;;;;;5018357;28;20508;-85
2024/01/13 01:27:35;;;;;;;30.00;17.30;;;;;;;;;;5014498;28;20448;-83
2024/01/13 01:30:02;;;;;;;32.50;18.10;;;;;;;;;;5019073;28;20458;-87
2024/01/13 01:32:30;;;;;;;32.33;16.63;;;;;;;;;;5017727;28;20857;-85
2024/01/13 01:34:57;;;;;;;36.23;17.10;;;;;;;;;;5025387;28;20460;-86
2024/01/13 01:37:24;;;;;;;28.73;15.93;;;;;;;;;;5020798;28;20489;-84
2024/01/13 01:39:51;;;;;;;32.33;18.00;;;;;;;;;;5020418;28;20480;-82
2024/01/13 01:42:18;;;;;;;32.13;16.50;;;;;;;;;;5037549;28;20457;-86
2024/01/13 01:44:45;;;;;;;34.10;16.67;;;;;;;;;;5042659;28;20444;-83
2024/01/13 01:47:14;;;;;;;29.40;18.10;;;;;;;;;;5042794;28;20451;-85
2024/01/13 01:49:42;;;;;;;32.33;17.70;;;;;;;;;;5032291;28;20573;-85
2024/01/13 01:52:09;;;;;;;32.10;17.40;;;;;;;;;;5041895;28;20445;-85
2024/01/13 01:54:37;;;;;;;28.83;16.60;;;;;;;;;;5022256;28;20450;-84
2024/01/13 01:57:04;;;;;;;29.83;16.40;;;;;;;;;;5020673;28;20457;-84
2024/01/13 01:59:31;;;;;;;27.23;16.30;;;;;;;;;;5059407;28;20475;-82
2024/01/13 02:02:00;;;;;;;30.13;15.40;;;;;;;;;;5036266;28;20469;-85
2024/01/13 02:04:28;;;;;;;30.03;16.63;;;;;;;;;;5021256;28;20474;-85
2024/01/13 02:06:55;;;;;;;26.77;14.00;;;;;;;;;;5034120;28;21035;-84
2024/01/13 02:09:23;;;;;;;27.60;15.10;;;;;;;;;;5018761;28;20873;-85
2024/01/13 02:11:50;;;;;;;28.80;16.93;;;;;;;;;;5018571;28;23939;-83
2024/01/13 02:14:17;;;;;;;27.77;16.20;;;;;;;;;;5027061;28;20461;-84
2024/01/13 02:16:44;;;;;;;29.57;17.27;;;;;;;;;;5014830;28;20473;-86
2024/01/13 02:19:12;;;;;;;26.67;15.10;;;;;;;;;;5017078;28;20489;-86
2024/01/13 02:21:39;;;;;;;35.40;16.83;;;;;;;;;;5025980;28;20492;-84
2024/01/13 02:24:06;;;;;;;27.70;15.07;;;;;;;;;;5019057;28;20521;-83
2024/01/13 02:26:34;;;;;;;27.53;14.70;;;;;;;;;;5036391;28;20477;-83
2024/01/13 02:29:02;;;;;;;29.07;15.07;;;;;;;;;;5018289;28;20598;-85
2024/01/13 02:31:29;;;;;;;20.80;12.87;;;;;;;;;;5016086;28;20828;-84
2024/01/13 02:33:56;;;;;;;28.53;15.87;;;;;;;;;;5029040;28;20456;-84
2024/01/13 02:36:24;;;;;;;26.63;14.07;;;;;;;;;;5019183;28;20506;-83
2024/01/13 02:38:51;;;;;;;22.53;13.93;;;;;;;;;;5011557;28;20480;-85
2024/01/13 02:41:18;;;;;;;26.47;15.47;;;;;;;;;;5026523;28;20500;-84
2024/01/13 02:43:47;;;;;;;32.83;15.47;;;;;;;;;;5018365;28;20454;-85
2024/01/13 02:46:14;;;;;;;25.73;14.93;;;;;;;;;;5012149;28;20464;-83
2024/01/13 02:48:43;;;;;;;22.60;13.50;;;;;;;;;;5019068;28;20492;-83
2024/01/13 02:51:15;;;;;;;22.73;14.03;;;;;;;;;;5011873;28;20463;-83
2024/01/13 02:53:43;;;;;;;25.53;13.97;;;;;;;;;;5020569;28;20611;-82
2024/01/13 02:56:10;;;;;;;25.63;14.50;;;;;;;;;;5054898;28;20460;-84
2024/01/13 02:58:37;;;;;;;22.67;13.00;;;;;;;;;;5047125;28;20465;-84
2024/01/13 03:01:07;;;;;;;22.10;13.53;;;;;;;;;;5049660;28;20489;-84
2024/01/13 03:03:35;;;;;;;21.70;14.73;;;;;;;;;;5054320;28;20514;-83
2024/01/13 03:06:03;;;;;;;21.90;13.33;;;;;;;;;;5041978;28;20469;-84
2024/01/13 03:08:31;;;;;;;31.70;15.47;;;;;;;;;;5042072;28;20897;-83
2024/01/13 03:11:03;;;;;;;28.07;16.23;;;;;;;;;;5029849;28;20448;-84
2024/01/13 03:13:30;;;;;;;32.53;14.27;;;;;;;;;;5023950;28;20547;-86
2024/01/13 03:15:58;;;;;;;25.27;14.13;;;;;;;;;;5028056;28;20458;-84
2024/01/13 03:18:26;;;;;;;24.70;13.07;;;;;;;;;;5025411;28;20484;-86
2024/01/13 03:20:59;;;;;;;26.60;14.70;;;;;;;;;;5025323;28;20991;-86
2024/01/13 03:23:26;;;;;;;23.67;12.67;;;;;;;;;;5019680;28;20457;-82
2024/01/13 03:25:54;;;;;;;21.90;12.90;;;;;;;;;;5034570;28;20468;-86
2024/01/13 03:28:21;;;;;;;22.17;13.13;;;;;;;;;;5036437;28;20495;-85
2024/01/13 03:30:52;;;;;;;24.83;12.77;;;;;;;;;;5020139;28;20491;-84
2024/01/13 03:33:19;;;;;;;17.20;11.70;;;;;;;;;;5022032;28;21220;-87
2024/01/13 03:35:47;;;;;;;28.30;12.60;;;;;;;;;;5038064;28;20513;-84
2024/01/13 03:38:14;;;;;;;24.77;13.30;;;;;;;;;;5028991;28;20481;-86
2024/01/13 03:40:48;;;;;;;19.47;11.10;;;;;;;;;;5029604;28;20488;-88
2024/01/13 03:43:16;;;;;;;19.93;12.43;;;;;;;;;;5023410;28;20542;-87
2024/01/13 03:45:43;;;;;;;19.27;12.20;;;;;;;;;;5022078;28;20454;-86
2024/01/13 03:48:10;;;;;;;24.20;13.87;;;;;;;;;;5007268;28;20732;-84
2024/01/13 03:50:37;;;;;;;24.63;13.90;;;;;;;;;;5020504;28;20790;-83
2024/01/13 03:53:05;;;;;;;24.03;12.77;;;;;;;;;;5016330;28;20483;-84
2024/01/13 03:55:32;;;;;;;28.10;14.33;;;;;;;;;;5029844;28;21031;-84
2024/01/13 03:57:59;;;;;;;22.53;13.93;;;;;;;;;;5018880;28;20478;-87
2024/01/13 04:00:26;;;;;;;22.10;12.60;;;;;;;;;;5016150;28;20486;-83
2024/01/13 04:02:53;;;;;;;23.97;13.20;;;;;;;;;;5019676;28;20537;-84
2024/01/13 04:05:20;;;;;;;23.37;13.27;;;;;;;;;;5021538;28;20462;-84
2024/01/13 04:07:48;;;;;;;16.97;10.63;;;;;;;;;;5035205;28;20478;-86
2024/01/13 04:10:15;;;;;;;26.30;12.80;;;;;;;;;;5022065;28;20946;-84
2024/01/13 04:12:45;;;;;;;26.27;11.90;;;;;;;;;;5024401;28;20449;-85
2024/01/13 04:15:12;;;;;;;19.63;12.37;;;;;;;;;;5045560;28;20464;-82
2024/01/13 04:17:39;;;;;;;18.50;11.50;;;;;;;;;;5035946;28;20450;-83
2024/01/13 04:20:09;;;;;;;21.20;12.07;;;;;;;;;;5044752;28;20493;-83
2024/01/13 04:22:36;;;;;;;23.00;12.13;;;;;;;;;;5042753;28;20468;-84
2024/01/13 04:25:03;;;;;;;18.57;12.57;;;;;;;;;;5041888;28;20453;-83
2024/01/13 04:27:31;;;;;;;20.10;11.53;;;;;;;;;;5028487;28;20470;-83
2024/01/13 04:29:58;;;;;;;17.37;10.87;;;;;;;;;;5028152;28;20465;-85
2024/01/13 04:32:25;;;;;;;24.50;12.30;;;;;;;;;;5017398;28;20497;-86
2024/01/13 04:34:53;;;;;;;23.00;12.40;;;;;;;;;;5016878;28;20972;-84
2024/01/13 04:37:20;;;;;;;18.03;11.27;;;;;;;;;;5031526;28;20469;-85
2024/01/13 04:39:48;;;;;;;18.83;12.40;;;;;;;;;;5040180;28;20441;-82
2024/01/13 04:42:15;;;;;;;19.00;11.90;;;;;;;;;;5047864;28;20573;-84
2024/01/13 04:44:42;;;;;;;22.90;13.60;;;;;;;;;;5054720;28;20455;-84
2024/01/13 04:47:09;;;;;;;19.33;11.70;;;;;;;;;;5032685;28;20470;-82
2024/01/13 04:49:37;;;;;;;17.87;11.37;;;;;;;;;;5033538;28;20470;-83
2024/01/13 04:52:04;;;;;;;17.83;12.27;;;;;;;;;;5009223;28;20560;-84
2024/01/13 04:54:31;;;;;;;18.80;10.70;;;;;;;;;;5018941;28;20449;-85
2024/01/13 04:57:00;;;;;;;15.80;10.33;;;;;;;;;;5026627;28;20454;-85
2024/01/13 04:59:27;;;;;;;19.57;10.27;;;;;;;;;;5026820;28;20513;-85
2024/01/13 05:01:54;;;;;;;15.33;10.20;;;;;;;;;;5011788;28;20478;-84
2024/01/13 05:04:21;;;;;;;17.57;10.83;;;;;;;;;;5016028;28;20457;-84
2024/01/13 05:06:48;;;;;;;18.23;10.27;;;;;;;;;;5027652;28;20446;-83
2024/01/13 05:09:16;;;;;;;17.30;10.23;;;;;;;;;;5033479;28;20468;-85
2024/01/13 05:11:43;;;;;;;19.87;11.60;;;;;;;;;;5016026;28;20456;-83
2024/01/13 05:14:10;;;;;;;18.40;11.03;;;;;;;;;;5013344;28;20478;-86
2024/01/13 05:16:37;;;;;;;17.80;11.37;;;;;;;;;;5012446;28;20470;-86
2024/01/13 05:19:04;;;;;;;19.50;11.80;;;;;;;;;;5025567;28;20482;-85
2024/01/13 05:21:32;;;;;;;17.57;11.23;;;;;;;;;;5013745;28;20485;-83
2024/01/13 05:23:59;;;;;;;20.63;11.13;;;;;;;;;;5026166;28;20517;-83
2024/01/13 05:26:26;;;;;;;17.23;11.73;;;;;;;;;;5025660;28;20903;-84
2024/01/13 05:28:54;;;;;;;19.63;12.13;;;;;;;;;;5013482;28;20478;-83
2024/01/13 05:31:22;;;;;;;17.33;11.50;;;;;;;;;;5035827;28;20465;-86
2024/01/13 05:33:49;;;;;;;17.30;12.10;;;;;;;;;;5016434;28;20469;-82
2024/01/13 05:36:17;;;;;;;22.57;14.70;;;;;;;;;;5027551;28;20469;-84
2024/01/13 05:38:44;;;;;;;20.17;11.87;;;;;;;;;;5026226;28;20484;-84
2024/01/13 05:41:11;;;;;;;22.90;13.17;;;;;;;;;;5018306;28;20492;-85
2024/01/13 05:43:38;;;;;;;20.00;13.37;;;;;;;;;;5010530;28;20466;-85
2024/01/13 05:46:05;;;;;;;20.27;13.30;;;;;;;;;;5013458;28;20458;-85
2024/01/13 05:48:33;;;;;;;23.60;13.77;;;;;;;;;;5010992;28;21001;-83
2024/01/13 05:51:00;;;;;;;20.57;13.20;;;;;;;;;;5024688;28;20458;-84
2024/01/13 05:53:28;;;;;;;24.70;15.93;;;;;;;;;;5021372;28;20454;-84
2024/01/13 05:55:56;;;;;;;19.37;13.60;;;;;;;;;;5037866;28;20454;-85
2024/01/13 05:58:23;;;;;;;22.17;12.63;;;;;;;;;;5038531;28;20524;-84
2024/01/13 06:00:50;;;;;;;27.17;12.90;;;;;;;;;;5039036;28;20453;-83
2024/01/13 06:03:19;;;;;;;20.17;13.30;;;;;;;;;;5038232;28;20464;-82
2024/01/13 06:05:46;;;;;;;20.70;12.10;;;;;;;;;;5026709;28;20451;-83
2024/01/13 06:08:13;;;;;;;24.87;13.00;;;;;;;;;;5029117;28;20480;-85
2024/01/13 06:10:40;;;;;;;19.87;12.00;;;;;;;;;;5012898;28;20458;-86
2024/01/13 06:13:07;;;;;;;21.67;12.10;;;;;;;;;;5022908;28;20458;-83
2024/01/13 06:15:35;;;;;;;23.70;12.90;;;;;;;;;;5014104;28;20463;-85
2024/01/13 06:18:02;;;;;;;22.70;12.67;;;;;;;;;;5017026;28;20473;-85
2024/01/13 06:20:29;;;;;;;21.50;12.80;;;;;;;;;;5034982;28;20449;-86
2024/01/13 06:22:56;;;;;;;24.20;12.70;;;;;;;;;;5019964;28;20521;-84
2024/01/13 06:25:26;;;;;;;20.60;12.30;;;;;;;;;;5038232;28;20470;-83
2024/01/13 06:27:53;;;;;;;18.03;11.70;;;;;;;;;;5037097;28;20473;-85
2024/01/13 06:30:20;;;;;;;20.40;11.93;;;;;;;;;;5021409;28;20456;-84
2024/01/13 06:32:47;;;;;;;19.07;12.83;;;;;;;;;;5025550;28;20533;-82
2024/01/13 06:35:17;;;;;;;21.80;12.60;;;;;;;;;;5017085;28;20476;-82
2024/01/13 06:37:44;;;;;;;21.90;11.67;;;;;;;;;;5016063;28;20492;-85
2024/01/13 06:40:12;;;;;;;20.20;12.47;;;;;;;;;;5018448;28;20473;-85
2024/01/13 06:42:39;;;;;;;18.40;11.13;;;;;;;;;;5018937;28;20517;-84
2024/01/13 06:45:06;;;;;;;19.80;11.33;;;;;;;;;;5015613;28;20468;-87
2024/01/13 06:47:33;;;;;;;18.63;11.80;;;;;;;;;;5032561;28;20462;-84
2024/01/13 06:50:01;;;;;;;18.77;12.37;;;;;;;;;;5037434;28;20457;-86
2024/01/13 06:52:28;;;;;;;16.17;11.43;;;;;;;;;;5032261;28;20754;-83
2024/01/13 06:54:55;;;;;;;17.43;11.17;;;;;;;;;;5026556;28;20520;-84
2024/01/13 06:57:22;;;;;;;18.20;12.00;;;;;;;;;;4997236;28;20480;-83
2024/01/13 06:59:50;;;;;;;20.13;12.10;;;;;;;;;;5040744;28;20461;-85
2024/01/13 07:02:17;;;;;;;15.63;10.40;;;;;;;;;;5019686;28;20635;-86
2024/01/13 07:04:45;;;;;;;16.80;12.60;;;;;;;;;;5016730;28;20464;-85
2024/01/13 07:07:12;;;;;;;14.17;11.00;;;;;;;;;;5021816;28;20493;-86
2024/01/13 07:09:39;;;;;;;16.73;11.00;;;;;;;;;;5026783;28;20483;-84
2024/01/13 07:12:07;;;;;;;18.93;12.00;;;;;;;;;;5015538;28;20495;-86
2024/01/13 07:14:34;;;;;;;18.37;11.37;;;;;;;;;;5017094;28;20489;-86
2024/01/13 07:17:01;;;;;;;18.23;11.27;;;;;;;;;;5020311;28;20462;-84
2024/01/13 07:19:28;;;;;;;17.73;12.23;;;;;;;;;;5016574;28;20490;-85
2024/01/13 07:21:56;;;;;;;17.27;10.97;;;;;;;;;;5038437;28;20488;-83
2024/01/13 07:24:24;;;;;;;22.70;12.50;;;;;;;;;;5033971;28;20465;-86
2024/01/13 07:26:51;;;;;;;20.40;11.80;;;;;;;;;;5039565;28;20477;-85
2024/01/13 07:29:19;;;;;;;19.67;12.00;;;;;;;;;;5030966;28;20493;-83
2024/01/13 07:31:47;;;;;;;14.50;11.40;;;;;;;;;;5043416;28;20513;-83
2024/01/13 07:34:14;;;;;;;15.03;11.00;;;;;;;;;;5022227;28;20488;-84
2024/01/13 07:36:42;;;;;;;15.63;12.00;;;;;;;;;;5023268;28;20942;-83
2024/01/13 07:39:09;;;;;;;20.10;13.30;;;;;;;;;;5020990;28;20492;-84
2024/01/13 07:41:37;;;;;;;14.50;10.73;;;;;;;;;;5014780;28;20490;-83
2024/01/13 07:44:04;;;;;;;18.27;12.17;;;;;;;;;;5018346;28;21732;-85
2024/01/13 07:46:31;;;;;;;18.13;12.10;;;;;;;;;;5020157;28;20455;-87
2024/01/13 07:48:58;;;;;;;19.67;12.10;;;;;;;;;;5013205;28;20517;-85
2024/01/13 07:51:27;;;;;;;19.67;13.13;;;;;;;;;;5029187;28;20485;-86
2024/01/13 07:53:58;;;;;;;18.00;12.37;;;;;;;;;;5022338;28;20517;-85
2024/01/13 07:56:25;;;;;;;15.47;11.60;;;;;;;;;;5043759;28;20458;-85
2024/01/13 07:58:52;;;;;;;23.53;14.83;;;;;;;;;;5028197;28;20480;-84
2024/01/13 08:01:19;;;;;;;18.03;12.10;;;;;;;;;;5017814;28;20457;-85
2024/01/13 08:03:53;;;;;;;20.00;12.80;;;;;;;;;;5016078;28;21909;-86
2024/01/13 08:06:22;;;;;;;21.97;14.43;;;;;;;;;;5016476;28;20463;-85
2024/01/13 08:08:50;;;;;;;17.80;12.57;;;;;;;;;;5033896;28;20484;-85
2024/01/13 08:11:17;;;;;;;19.47;13.77;;;;;;;;;;5026026;28;21501;-85
2024/01/13 08:14:03;;;;;;;22.13;15.03;;;;;;;;;;5017487;28;20456;-85
2024/01/13 08:16:30;;;;;;;20.77;13.73;;;;;;;;;;5020788;28;20474;-86
2024/01/13 08:18:57;;;;;;;18.93;12.93;;;;;;;;;;5011325;28;20566;-85
2024/01/13 08:21:25;;;;;;;23.10;13.87;;;;;;;;;;5015351;28;20463;-82
2024/01/13 08:23:57;;;;;;;20.23;15.10;;;;;;;;;;5020053;28;20703;-84
2024/01/13 08:26:25;;;;;;;18.93;14.10;;;;;;;;;;5024055;28;20482;-82
2024/01/13 08:28:52;;;;;;;18.20;14.43;;;;;;;;;;5023003;28;20476;-86
2024/01/13 08:31:20;;;;;;;24.67;14.70;;;;;;;;;;5019770;28;20453;-85
2024/01/13 08:33:52;;;;;;;19.83;14.73;;;;;;;;;;5029393;28;20464;-85
2024/01/13 08:36:19;;;;;;;21.17;14.07;;;;;;;;;;5030453;28;20462;-84
2024/01/13 08:38:47;;;;;;;22.60;14.80;;;;;;;;;;5035854;28;20505;-85
2024/01/13 08:41:14;;;;;;;23.63;13.97;;;;;;;;;;5019104;28;20819;-84
2024/01/13 08:43:48;;;;;;;20.70;13.60;;;;;;;;;;5032098;28;20494;-83
2024/01/13 08:46:15;;;;;;;23.97;14.57;;;;;;;;;;5034092;28;20527;-86
2024/01/13 08:48:43;;;;;;;22.50;15.80;;;;;;;;;;5016334;28;20502;-85
2024/01/13 08:51:10;;;;;;;21.73;14.63;;;;;;;;;;5030328;28;20468;-84
2024/01/13 08:53:47;;;;;;;20.40;14.47;;;;;;;;;;5030031;28;20449;-85
2024/01/13 08:56:14;;;;;;;19.20;14.37;;;;;;;;;;5022171;28;20458;-83
2024/01/13 08:58:47;;;;;;;18.77;13.20;;;;;;;;;;5027466;28;20652;-84
2024/01/13 09:01:15;;;;;;;18.00;13.27;;;;;;;;;;5013004;28;20454;-85
2024/01/13 09:03:50;;;;;;;19.27;14.33;;;;;;;;;;5033528;28;20461;-82
2024/01/13 09:06:19;;;;;;;16.40;11.97;;;;;;;;;;5022780;28;20516;-86
2024/01/13 09:08:46;;;;;;;18.57;12.90;;;;;;;;;;5028579;28;21800;-86
2024/01/13 09:11:13;;;;;;;16.20;12.60;;;;;;;;;;5017067;28;20450;-83
2024/01/13 09:13:48;;;;;;;16.00;11.80;;;;;;;;;;5026438;28;21189;-84
2024/01/13 09:16:15;;;;;;;15.27;11.10;;;;;;;;;;5028455;28;20525;-85
2024/01/13 09:18:43;;;;;;;14.80;11.37;;;;;;;;;;5041769;28;20475;-85
2024/01/13 09:21:12;;;;;;;12.70;10.30;;;;;;;;;;5038050;28;20453;-84
2024/01/13 09:23:44;;;;;;;11.87;9.70;;;;;;;;;;5014598;28;20496;-82
2024/01/13 09:26:11;;;;;;;14.77;11.13;;;;;;;;;;5044457;28;20455;-83
2024/01/13 09:28:39;;;;;;;12.93;9.70;;;;;;;;;;5044537;28;20522;-84
2024/01/13 09:31:06;;;;;;;13.70;10.50;;;;;;;;;;5048808;28;20479;-86
2024/01/13 09:33:33;;;;;;;12.63;9.07;;;;;;;;;;5046996;28;20457;-83
2024/01/13 09:36:01;;;;;;;13.53;9.07;;;;;;;;;;5067141;28;20485;-82
2024/01/13 09:38:28;;;;;;;11.03;8.97;;;;;;;;;;5050721;28;20458;-84
2024/01/13 09:40:55;;;;;;;12.50;8.90;;;;;;;;;;5049031;28;20477;-83
2024/01/13 09:43:23;;;;;;;19.30;10.10;;;;;;;;;;5035368;28;20483;-85
2024/01/13 09:45:50;;;;;;;11.57;8.90;;;;;;;;;;5041124;28;20455;-87
2024/01/13 09:48:20;;;;;;;12.00;9.77;;;;;;;;;;5024790;28;20476;-86
2024/01/13 09:50:50;;;;;;;11.10;8.30;;;;;;;;;;5021210;28;20457;-85
2024/01/13 09:53:30;;;;;;;11.50;8.30;;;;;;;;;;5034886;28;20528;-84
2024/01/13 09:56:00;;;;;;;10.97;8.90;;;;;;;;;;5024659;28;20466;-85
2024/01/13 09:58:28;;;;;;;12.20;9.70;;;;;;;;;;5028832;28;20520;-83
2024/01/13 10:00:56;;;;;;;11.83;9.70;;;;;;;;;;5023714;28;20472;-85
2024/01/13 10:03:24;;;;;;;12.20;9.67;;;;;;;;;;5044800;28;20543;-85
2024/01/13 10:05:52;;;;;;;11.20;8.73;;;;;;;;;;5026364;28;20510;-85
2024/01/13 10:08:27;;;;;;;10.60;8.23;;;;;;;;;;5035578;28;20792;-84
2024/01/13 10:10:55;;;;;;;11.10;8.73;;;;;;;;;;5021051;28;20466;-83
2024/01/13 10:13:25;;;;;;;12.63;9.37;;;;;;;;;;5026323;28;20465;-85
2024/01/13 10:15:53;;;;;;;13.30;9.40;;;;;;;;;;5025811;28;20493;-85
2024/01/13 10:18:21;;;;;;;11.57;8.20;;;;;;;;;;5036921;28;20468;-84
2024/01/13 10:20:49;;;;;;;10.17;8.17;;;;;;;;;;5032562;28;20445;-84
2024/01/13 10:23:17;;;;;;;10.57;8.50;;;;;;;;;;5027751;28;20465;-85
2024/01/13 10:25:44;;;;;;;8.43;7.47;;;;;;;;;;5028730;28;20569;-85
2024/01/13 10:28:13;;;;;;;9.83;8.03;;;;;;;;;;5026816;28;20473;-84
2024/01/13 10:30:40;;;;;;;12.00;8.70;;;;;;;;;;5025885;28;20460;-85
2024/01/13 10:33:12;;;;;;;12.03;8.43;;;;;;;;;;5047946;28;20463;-85
2024/01/13 10:35:39;;;;;;;9.00;7.80;;;;;;;;;;5045231;28;20452;-86
2024/01/13 10:38:07;;;;;;;9.97;7.63;;;;;;;;;;5032030;28;20479;-85
2024/01/13 10:40:34;;;;;;;8.87;6.90;;;;;;;;;;5045368;28;20453;-85
2024/01/13 10:43:05;;;;;;;9.30;7.90;;;;;;;;;;5067233;28;20488;-84
2024/01/13 10:45:34;;;;;;;7.87;6.50;;;;;;;;;;5071143;28;20524;-85
2024/01/13 10:48:05;;;;;;;10.97;8.03;;;;;;;;;;5040009;28;20473;-86
2024/01/13 10:50:36;;;;;;;10.53;7.10;;;;;;;;;;5017625;28;20450;-85
2024/01/13 10:53:26;;;;;;;8.77;7.03;;;;;;;;;;5024196;28;20445;-85
2024/01/13 10:55:53;;;;;;;7.23;6.53;;;;;;;;;;5022366;28;20464;-87
2024/01/13 10:58:21;;;;;;;10.57;6.50;;;;;;;;;;5031838;28;20549;-85
2024/01/13 11:00:48;;;;;;;11.67;7.73;;;;;;;;;;5025233;28;20516;-84
2024/01/13 11:03:16;;;;;;;8.50;6.80;;;;;;;;;;5038405;28;20496;-85
2024/01/13 11:05:43;;;;;;;8.07;6.70;;;;;;;;;;5038120;28;22240;-85
2024/01/13 11:08:11;;;;;;;8.63;6.97;;;;;;;;;;5030964;28;20470;-85
2024/01/13 11:10:40;;;;;;;10.03;6.83;;;;;;;;;;5037549;28;20500;-84
2024/01/13 11:13:12;;;;;;;10.93;5.57;;;;;;;;;;5042393;28;20453;-87
2024/01/13 11:15:42;;;;;;;8.87;7.30;;;;;;;;;;5028382;28;20452;-85
2024/01/13 11:18:13;;;;;;;7.03;6.33;;;;;;;;;;5020280;28;20475;-86
2024/01/13 11:21:00;;;;;;;6.83;6.13;;;;;;;;;;5041014;28;20483;-87
2024/01/13 11:23:27;;;;;;;10.20;6.53;;;;;;;;;;5018913;28;20493;-86
2024/01/13 11:25:55;;;;;;;9.43;7.30;;;;;;;;;;5017869;28;20473;-88
2024/01/13 11:28:22;;;;;;;10.10;7.40;;;;;;;;;;5020471;28;20495;-86
2024/01/13 11:30:50;;;;;;;9.33;7.40;;;;;;;;;;5027541;28;21033;-85
2024/01/13 11:33:17;;;;;;;8.77;7.33;;;;;;;;;;5032398;28;20505;-86
2024/01/13 11:35:46;;;;;;;7.87;6.40;;;;;;;;;;5037098;28;20470;-85
2024/01/13 11:38:14;;;;;;;7.47;6.30;;;;;;;;;;5031778;28;20699;-86
2024/01/13 11:40:50;;;;;;;8.37;7.00;;;;;;;;;;5029322;28;20458;-85
2024/01/13 11:43:26;;;;;;;10.80;7.90;;;;;;;;;;5039323;28;20511;-84
2024/01/13 11:45:54;;;;;;;9.27;6.77;;;;;;;;;;5035158;28;20521;-87
2024/01/13 11:48:29;;;;;;;11.37;8.30;;;;;;;;;;5034016;28;20487;-86
2024/01/13 11:50:57;;;;;;;13.60;6.50;;;;;;;;;;5024788;28;20524;-85
2024/01/13 11:53:44;;;;;;;11.17;6.90;;;;;;;;;;5018497;28;20465;-84
2024/01/13 11:56:13;;;;;;;12.40;8.17;;;;;;;;;;5037334;28;20495;-86
2024/01/13 11:58:47;;;;;;;8.10;7.13;;;;;;;;;;5023708;28;20486;-85
2024/01/13 12:01:14;;;;;;;9.47;6.93;;;;;;;;;;5028258;28;20471;-86
2024/01/13 12:04:00;;;;;;;8.60;7.70;;;;;;;;;;5036134;28;20493;-84
2024/01/13 12:06:27;;;;;;;9.10;6.70;;;;;;;;;;5031601;28;20483;-86
2024/01/13 12:08:54;;;;;;;8.00;6.97;;;;;;;;;;5031742;28;20478;-85
2024/01/13 12:11:23;;;;;;;8.40;6.33;;;;;;;;;;5045492;28;20495;-86
2024/01/13 12:13:54;;;;;;;9.17;7.07;;;;;;;;;;5015863;28;20460;-85
2024/01/13 12:16:23;;;;;;;9.40;6.80;;;;;;;;;;5030994;28;20478;-87
2024/01/13 12:18:53;;;;;;;10.73;8.10;;;;;;;;;;5033772;28;20492;-84
2024/01/13 12:21:22;;;;;;;9.97;7.30;;;;;;;;;;5029984;28;20480;-86
2024/01/13 12:24:00;;;;;;;12.80;9.40;;;;;;;;;;5029854;28;20476;-85
2024/01/13 12:26:29;;;;;;;10.90;8.13;;;;;;;;;;5013235;28;20525;-86
2024/01/13 12:28:59;;;;;;;10.20;8.00;;;;;;;;;;5035830;28;20482;-85
2024/01/13 12:31:28;;;;;;;10.30;9.17;;;;;;;;;;5035861;28;20483;-82
2024/01/13 12:34:31;;;;;;;11.87;9.20;;;;;;;;;;5032557;28;20465;-87
2024/01/13 12:37:03;;;;;;;14.43;8.40;;;;;;;;;;5023624;28;20526;-85
2024/01/13 12:39:47;;;;;;;10.27;8.03;;;;;;;;;;5026169;28;20997;-86
2024/01/13 12:42:35;;;;;;;21.13;14.30;;;;;;;;;;5035442;28;20787;-88
2024/01/13 12:45:23;;;;;;;17.97;10.30;;;;;;;;;;5033609;28;20471;-87
2024/01/13 12:48:02;;;;;;;12.80;9.60;;;;;;;;;;5047406;28;20493;-85
2024/01/13 12:54:39;;;;;;;14.00;8.93;;;;;;;;;;5032580;28;20462;-88
2024/01/13 12:57:15;;;;;;;15.80;9.43;;;;;;;;;;5035037;28;20461;-84
2024/01/13 12:59:58;;;;;;;12.33;8.80;;;;;;;;;;5032703;28;20472;-85
2024/01/13 13:02:35;;;;;;;13.40;9.37;;;;;;;;;;5037553;28;20445;-85
2024/01/13 13:05:22;;;;;;;13.80;9.27;;;;;;;;;;5022513;28;21021;-84
2024/01/13 13:08:22;;;;;;;14.63;10.17;;;;;;;;;;5048543;28;20573;-85
2024/01/13 13:11:02;;;;;;;15.13;10.10;;;;;;;;;;5022561;28;20448;-86
2024/01/13 13:13:29;;;;;;;16.93;9.90;;;;;;;;;;5014741;28;20551;-85
2024/01/13 13:15:58;;;;;;;14.90;10.20;;;;;;;;;;5026029;28;20508;-83
2024/01/13 13:18:25;;;;;;;15.83;11.10;;;;;;;;;;5029455;28;20511;-85
2024/01/13 13:20:55;;;;;;;16.90;11.07;;;;;;;;;;5028913;28;20465;-86
2024/01/13 13:23:22;;;;;;;18.90;9.70;;;;;;;;;;5039359;28;20516;-87
2024/01/13 13:25:50;;;;;;;15.10;10.13;;;;;;;;;;5021879;28;20476;-84
2024/01/13 13:28:17;;;;;;;14.63;10.43;;;;;;;;;;5036485;28;20479;-85
2024/01/13 13:30:45;;;;;;;12.93;10.23;;;;;;;;;;5025746;28;21066;-84
2024/01/13 13:33:13;;;;;;;15.63;11.00;;;;;;;;;;5029297;28;20453;-86
2024/01/13 13:35:53;;;;;;;17.23;11.37;;;;;;;;;;5027340;28;20463;-86
2024/01/13 13:38:42;;;;;;;14.30;11.40;;;;;;;;;;5024304;28;20559;-87
2024/01/13 13:41:11;;;;;;;19.30;10.60;;;;;;;;;;5023695;28;20485;-85
2024/01/13 13:43:38;;;;;;;16.90;11.73;;;;;;;;;;5030737;28;20518;-84
2024/01/13 13:46:06;;;;;;;22.53;13.00;;;;;;;;;;5035913;28;20487;-84
2024/01/13 13:48:36;;;;;;;16.93;11.40;;;;;;;;;;5036087;28;20465;-84
2024/01/13 13:51:04;;;;;;;16.97;13.07;;;;;;;;;;5043935;28;20490;-84
2024/01/13 13:53:32;;;;;;;20.07;12.53;;;;;;;;;;5031515;28;20459;-82
2024/01/13 13:56:01;;;;;;;16.70;11.33;;;;;;;;;;5043352;28;20685;-84
2024/01/13 13:58:28;;;;;;;14.90;11.47;;;;;;;;;;5048892;28;20467;-84
2024/01/13 14:00:55;;;;;;;17.57;10.57;;;;;;;;;;5040080;28;20451;-84
2024/01/13 14:03:22;;;;;;;22.07;12.30;;;;;;;;;;5029302;28;20545;-86
2024/01/13 14:05:49;;;;;;;18.10;11.67;;;;;;;;;;5035184;28;20460;-84
2024/01/13 14:08:17;;;;;;;19.93;12.50;;;;;;;;;;5017231;28;20515;-85
2024/01/13 14:10:44;;;;;;;20.10;12.23;;;;;;;;;;5024564;28;20527;-85
2024/01/13 14:13:11;;;;;;;21.53;14.73;;;;;;;;;;5024672;28;20463;-85
2024/01/13 14:15:39;;;;;;;19.40;12.63;;;;;;;;;;5032569;28;20486;-86
2024/01/13 14:18:06;;;;;;;18.50;12.10;;;;;;;;;;5017492;28;20519;-86
2024/01/13 14:20:35;;;;;;;16.67;11.40;;;;;;;;;;5018088;28;20481;-85
2024/01/13 14:23:03;;;;;;;18.87;11.77;;;;;;;;;;5021874;28;20479;-84
2024/01/13 14:25:31;;;;;;;18.03;11.90;;;;;;;;;;5023361;28;20469;-84
2024/01/13 14:27:59;;;;;;;18.13;11.97;;;;;;;;;;5035002;28;20486;-84
2024/01/13 14:30:26;;;;;;;17.70;13.47;;;;;;;;;;5022160;28;20460;-83
2024/01/13 14:32:53;;;;;;;16.60;12.93;;;;;;;;;;5022060;28;20503;-84
2024/01/13 14:35:20;;;;;;;20.33;12.20;;;;;;;;;;5014966;28;20447;-86